createdAt,value
2018-11-12T00:10:03.807Z,12.67
2018-11-12T00:20:38.242Z,9.10
2018-11-12T00:25:31.296Z,11.63
2018-11-12T00:51:40.337Z,10.93
2018-11-12T00:56:37.825Z,12.93
2018-11-12T01:01:31.164Z,9.40
2018-11-12T01:06:25.694Z,10.80
2018-11-12T01:11:30.245Z,9.87
2018-11-12T01:31:49.255Z,8.67
2018-11-12T01:36:32.879Z,9.53
2018-11-12T01:41:16.895Z,8.03
2018-11-12T01:46:00.154Z,11.03
2018-11-12T01:50:43.461Z,9.03
2018-11-12T01:55:27.943Z,11.60
2018-11-12T02:00:18.590Z,10.43
2018-11-12T02:05:02.622Z,11.87
2018-11-12T02:09:46.019Z,12.40
2018-11-12T02:14:29.131Z,9.80
2018-11-12T02:19:12.610Z,10.03
2018-11-12T02:23:56.391Z,8.13
2018-11-12T02:28:41.693Z,7.83
2018-11-12T02:33:25.749Z,10.27
2018-11-12T02:38:09.071Z,7.83
2018-11-12T02:42:55.044Z,9.37
2018-11-12T02:47:39.792Z,10.63
2018-11-12T02:52:23.080Z,9.27
2018-11-12T02:57:06.906Z,9.17
2018-11-12T03:01:50.041Z,8.67
2018-11-12T03:06:33.346Z,11.33
2018-11-12T03:11:16.487Z,9.47
2018-11-12T03:15:59.718Z,10.27
2018-11-12T03:20:45.139Z,10.20
2018-11-12T03:25:29.085Z,7.93
2018-11-12T03:30:14.623Z,10.10
2018-11-12T03:34:57.890Z,14.03
2018-11-12T03:39:42.244Z,10.23
2018-11-12T03:44:25.402Z,10.70
2018-11-12T03:49:09.363Z,10.10
2018-11-12T03:53:52.552Z,10.13
2018-11-12T03:58:40.323Z,8.77
2018-11-12T04:03:24.459Z,7.30
2018-11-12T04:08:07.942Z,7.30
2018-11-12T04:12:56.743Z,8.80
2018-11-12T04:17:43.598Z,9.10
2018-11-12T04:22:27.700Z,8.20
2018-11-12T04:27:11.716Z,9.87
2018-11-12T04:31:54.978Z,9.37
2018-11-12T04:36:39.068Z,12.83
2018-11-12T04:41:25.477Z,9.17
2018-11-12T04:46:12.067Z,11.43
2018-11-12T04:50:55.486Z,11.70
2018-11-12T04:55:40.114Z,10.00
2018-11-12T05:05:27.499Z,23.63
2018-11-12T05:10:19.803Z,13.67
2018-11-12T05:25:21.676Z,10.33
2018-11-12T05:30:48.708Z,11.07
2018-11-12T05:37:07.292Z,15.47
2018-11-12T05:52:28.269Z,11.33
2018-11-12T06:02:52.780Z,20.63
2018-11-12T06:08:21.449Z,24.77
2018-11-12T06:13:05.464Z,26.80
2018-11-12T06:18:06.582Z,26.77
2018-11-12T06:22:57.788Z,16.37
2018-11-12T06:35:42.725Z,11.07
2018-11-12T07:08:06.858Z,31.30
2018-11-12T07:12:50.816Z,25.30
2018-11-12T07:17:33.860Z,21.63
2018-11-12T07:22:16.815Z,17.70
2018-11-12T07:26:59.831Z,25.47
2018-11-12T07:31:42.839Z,15.03
2018-11-12T07:36:25.985Z,15.50
2018-11-12T07:41:08.963Z,17.47
2018-11-12T07:45:53.220Z,24.93
2018-11-12T07:50:36.285Z,22.37
2018-11-12T07:55:21.108Z,24.73
2018-11-12T08:00:05.804Z,20.03
2018-11-12T08:04:48.774Z,21.37
2018-11-12T08:09:31.926Z,21.50
2018-11-12T08:14:14.830Z,21.60
2018-11-12T08:18:58.018Z,26.20
2018-11-12T08:23:40.924Z,23.20
2018-11-12T08:28:23.919Z,23.93
2018-11-12T08:33:06.831Z,15.50
2018-11-12T08:37:50.623Z,14.33
2018-11-12T08:42:33.542Z,16.77
2018-11-12T08:47:16.500Z,19.57
2018-11-12T08:51:59.423Z,19.60
2018-11-12T08:56:43.557Z,21.43
2018-11-12T09:01:26.443Z,29.13
2018-11-12T09:06:09.674Z,20.13
2018-11-12T09:10:52.689Z,27.70
2018-11-12T09:15:36.577Z,19.57
2018-11-12T09:20:20.926Z,19.23
2018-11-12T09:25:03.885Z,17.67
2018-11-12T09:29:46.750Z,15.37
2018-11-12T09:34:29.663Z,9.93
2018-11-12T09:39:14.615Z,12.13
2018-11-12T09:43:57.518Z,12.43
2018-11-12T09:48:44.494Z,13.63
2018-11-12T09:53:27.433Z,16.10
2018-11-12T09:58:11.547Z,14.10
2018-11-12T10:02:55.084Z,15.10
2018-11-12T10:07:42.449Z,11.40
2018-11-12T10:12:27.312Z,15.07
2018-11-12T10:17:10.777Z,15.33
2018-11-12T10:37:42.982Z,19.00
2018-11-12T10:42:26.070Z,20.73
2018-11-12T10:47:10.236Z,17.83
2018-11-12T10:51:53.229Z,33.47
2018-11-12T10:56:36.291Z,15.40
2018-11-12T11:01:24.901Z,13.40
2018-11-12T11:06:13.184Z,19.60
2018-11-12T11:10:56.135Z,14.53
2018-11-12T11:15:39.734Z,13.43
2018-11-12T11:20:22.724Z,12.80
2018-11-12T11:25:06.784Z,16.50
2018-11-12T11:29:50.013Z,16.07
2018-11-12T11:34:33.085Z,13.37
2018-11-12T11:39:16.395Z,14.20
2018-11-12T11:43:59.404Z,16.17
2018-11-12T11:48:42.582Z,17.43
2018-11-12T11:53:25.643Z,17.77
2018-11-12T11:58:08.943Z,12.60
2018-11-12T12:02:53.772Z,13.90
2018-11-12T12:07:37.129Z,16.30
2018-11-12T12:12:20.181Z,13.13
2018-11-12T12:17:04.183Z,14.73
2018-11-12T12:21:48.415Z,13.27
2018-11-12T12:26:32.072Z,17.90
2018-11-12T12:31:15.127Z,10.60
2018-11-12T12:35:58.610Z,11.50
2018-11-12T12:40:41.748Z,16.90
2018-11-12T12:45:26.123Z,13.53
2018-11-12T12:50:10.912Z,17.70
2018-11-12T12:54:53.941Z,26.20
2018-11-12T12:59:36.980Z,21.23
2018-11-12T13:04:21.408Z,14.03
2018-11-12T13:09:06.905Z,18.63
2018-11-12T13:13:49.947Z,14.87
2018-11-12T13:18:34.039Z,20.53
2018-11-12T13:23:17.111Z,17.13
2018-11-12T13:28:02.347Z,15.67
2018-11-12T13:32:45.863Z,15.40
2018-11-12T13:37:29.877Z,15.80
2018-11-12T13:42:12.856Z,16.43
2018-11-12T13:46:57.567Z,18.07
2018-11-12T13:51:40.625Z,13.93
2018-11-12T13:56:23.722Z,17.00
2018-11-12T14:01:06.717Z,19.30
2018-11-12T14:05:50.279Z,22.90
2018-11-12T14:10:33.998Z,16.67
2018-11-12T14:15:19.200Z,18.07
2018-11-12T14:20:03.094Z,21.13
2018-11-12T14:24:46.673Z,21.37
2018-11-12T14:29:31.395Z,20.70
2018-11-12T14:34:15.343Z,17.97
2018-11-12T14:38:58.558Z,16.83
2018-11-12T14:43:41.912Z,14.17
2018-11-12T14:48:25.414Z,16.57
2018-11-12T14:53:08.499Z,17.03
2018-11-12T14:57:52.506Z,15.87
2018-11-12T15:02:35.553Z,18.13
2018-11-12T15:07:19.851Z,15.30
2018-11-12T15:12:03.000Z,15.60
2018-11-12T15:16:47.208Z,11.50
2018-11-12T15:21:30.260Z,10.73
2018-11-12T15:26:13.443Z,12.87
2018-11-12T15:30:56.620Z,13.63
2018-11-12T15:35:40.007Z,12.97
2018-11-12T15:40:23.208Z,10.97
2018-11-12T15:45:08.686Z,7.87
2018-11-12T15:49:54.490Z,13.47
2018-11-12T15:54:50.122Z,10.73
2018-11-12T15:59:33.358Z,8.90
2018-11-12T16:04:20.607Z,7.57
2018-11-12T16:09:05.678Z,7.10
2018-11-12T16:13:48.825Z,12.97
2018-11-12T16:18:33.529Z,8.40
2018-11-12T16:23:16.674Z,12.20
2018-11-12T16:28:06.019Z,11.27
2018-11-12T16:32:51.273Z,10.53
2018-11-12T16:37:36.612Z,9.70
2018-11-12T16:42:20.775Z,14.33
2018-11-12T16:47:04.089Z,10.73
2018-11-12T16:51:48.853Z,9.50
2018-11-12T16:56:32.445Z,8.47
2018-11-12T17:01:17.717Z,8.30
2018-11-12T17:06:02.289Z,9.70
2018-11-12T17:10:46.839Z,10.63
2018-11-12T17:15:30.316Z,9.90
2018-11-12T17:20:19.806Z,7.60
2018-11-12T17:25:03.645Z,9.33
2018-11-12T17:29:46.962Z,15.70
2018-11-12T17:34:31.513Z,10.43
2018-11-12T17:39:14.890Z,9.07
2018-11-12T17:44:00.131Z,10.90
2018-11-12T17:48:43.375Z,9.37
2018-11-12T17:53:26.777Z,9.07
2018-11-12T17:58:18.240Z,10.17
2018-11-12T18:03:12.383Z,7.50
2018-11-12T18:07:57.668Z,6.93
2018-11-12T18:12:50.042Z,7.30
2018-11-12T18:23:46.026Z,7.43
2018-11-12T19:21:34.405Z,3.87
2018-11-12T19:26:30.058Z,9.87
2018-11-12T19:36:35.906Z,3.73
2018-11-12T19:41:39.780Z,4.27
2018-11-12T19:46:36.917Z,3.40
2018-11-12T20:30:41.249Z,4.77
2018-11-12T20:36:11.409Z,4.53
2018-11-12T21:39:48.496Z,6.00
2018-11-12T21:44:43.791Z,5.80
2018-11-12T21:55:24.492Z,5.27
2018-11-12T23:16:08.973Z,8.40
2018-11-12T23:43:03.935Z,16.40
2018-11-12T23:47:54.999Z,6.50
